Time;durP1;ratioP1;P1;durP2;ratioP2;P2;SDS_P1;SDS_P2;PMS_P1;PMS_P2;Temp;Humidity;BMP_temperature;BMP_pressure;BME280_temperature;BME280_humidity;BME280_pressure;Samples;Min_cycle;Max_cycle;Signal;HPM_P1;HPM_P2
2023/06/17 00:01:47;;;;;;;4.80;4.40;;;;;;;;;;5104240;28;20236;-76
2023/06/17 00:04:13;;;;;;;4.20;3.90;;;;;;;;;;5100697;28;20299;-75
2023/06/17 00:06:40;;;;;;;5.47;4.57;;;;;;;;;;5096898;28;20210;-75
2023/06/17 00:09:07;;;;;;;4.17;3.87;;;;;;;;;;5110760;28;20203;-75
2023/06/17 00:11:34;;;;;;;5.07;4.13;;;;;;;;;;5092887;28;20296;-76
2023/06/17 00:14:02;;;;;;;5.33;4.37;;;;;;;;;;5090145;28;20714;-75
2023/06/17 00:16:32;;;;;;;5.87;4.57;;;;;;;;;;5094225;28;20229;-76
2023/06/17 00:18:59;;;;;;;5.83;4.03;;;;;;;;;;5099449;28;20204;-75
2023/06/17 00:21:26;;;;;;;4.47;4.17;;;;;;;;;;5112591;28;20204;-76
2023/06/17 00:23:53;;;;;;;6.30;4.40;;;;;;;;;;5114090;28;20210;-76
2023/06/17 00:26:20;;;;;;;7.10;4.20;;;;;;;;;;5096064;28;20200;-76
2023/06/17 00:28:46;;;;;;;6.40;5.13;;;;;;;;;;5106415;28;20203;-75
2023/06/17 00:31:15;;;;;;;5.47;4.97;;;;;;;;;;5114360;28;20211;-76
2023/06/17 00:33:41;;;;;;;7.83;4.20;;;;;;;;;;5102194;28;20633;-75
2023/06/17 00:36:08;;;;;;;6.07;4.23;;;;;;;;;;5107551;28;20212;-75
2023/06/17 00:38:35;;;;;;;5.20;4.10;;;;;;;;;;5093704;28;20211;-76
2023/06/17 00:41:02;;;;;;;4.40;4.00;;;;;;;;;;5099949;28;20203;-75
2023/06/17 00:43:28;;;;;;;4.90;4.40;;;;;;;;;;5101219;28;20207;-76
2023/06/17 00:45:55;;;;;;;4.93;4.23;;;;;;;;;;5113542;28;20195;-75
2023/06/17 00:48:23;;;;;;;5.00;4.60;;;;;;;;;;5114325;28;20210;-75
2023/06/17 00:50:50;;;;;;;4.87;4.37;;;;;;;;;;5107876;28;20747;-76
2023/06/17 00:53:17;;;;;;;5.03;4.63;;;;;;;;;;5094164;28;20204;-75
2023/06/17 00:55:44;;;;;;;5.67;4.37;;;;;;;;;;5113400;28;20636;-75
2023/06/17 00:58:16;;;;;;;4.07;3.67;;;;;;;;;;5100391;28;20204;-76
2023/06/17 01:00:42;;;;;;;4.27;3.40;;;;;;;;;;5093738;28;20253;-75
2023/06/17 01:03:09;;;;;;;4.03;3.73;;;;;;;;;;5106881;28;20195;-76
2023/06/17 01:05:38;;;;;;;3.80;3.50;;;;;;;;;;5106738;28;20250;-76
2023/06/17 01:08:14;;;;;;;4.57;3.43;;;;;;;;;;5107119;28;20195;-76
2023/06/17 01:10:45;;;;;;;4.87;4.30;;;;;;;;;;5102859;28;20199;-75
2023/06/17 01:13:13;;;;;;;7.90;4.80;;;;;;;;;;5109995;28;20204;-76
2023/06/17 01:15:39;;;;;;;5.40;4.37;;;;;;;;;;5093052;28;20290;-76
2023/06/17 01:18:07;;;;;;;5.40;4.67;;;;;;;;;;5106725;28;20219;-75
2023/06/17 01:20:35;;;;;;;6.57;4.50;;;;;;;;;;5104069;28;20203;-76
2023/06/17 01:23:06;;;;;;;5.90;4.53;;;;;;;;;;5099666;28;20191;-76
2023/06/17 01:25:34;;;;;;;7.33;4.83;;;;;;;;;;5101443;28;20644;-75
2023/06/17 01:28:15;;;;;;;6.80;4.80;;;;;;;;;;5111644;28;20692;-76
2023/06/17 01:30:42;;;;;;;5.97;5.53;;;;;;;;;;5112911;28;20596;-76
2023/06/17 01:33:09;;;;;;;5.33;4.90;;;;;;;;;;5105486;28;20201;-76
2023/06/17 01:35:38;;;;;;;4.57;4.17;;;;;;;;;;5106496;28;20217;-76
2023/06/17 01:38:08;;;;;;;7.33;4.43;;;;;;;;;;5100773;28;20227;-75
2023/06/17 01:40:39;;;;;;;4.63;4.23;;;;;;;;;;5099417;28;20196;-76
2023/06/17 01:43:07;;;;;;;7.63;3.90;;;;;;;;;;5103553;28;20215;-75
2023/06/17 01:45:34;;;;;;;4.37;3.97;;;;;;;;;;5108838;28;20202;-76
2023/06/17 01:48:02;;;;;;;7.63;4.73;;;;;;;;;;5102755;28;20207;-75
2023/06/17 01:50:28;;;;;;;6.80;4.10;;;;;;;;;;5109364;28;20226;-76
2023/06/17 01:52:55;;;;;;;8.93;4.80;;;;;;;;;;5102338;28;20239;-75
2023/06/17 01:55:22;;;;;;;6.57;4.10;;;;;;;;;;5093130;28;20215;-75
2023/06/17 01:57:50;;;;;;;7.50;3.93;;;;;;;;;;5103016;28;20226;-76
2023/06/17 02:00:17;;;;;;;5.30;3.87;;;;;;;;;;5099056;28;20711;-75
2023/06/17 02:02:44;;;;;;;4.43;3.53;;;;;;;;;;5112596;28;20587;-75
2023/06/17 02:05:10;;;;;;;4.57;4.17;;;;;;;;;;5093987;28;20204;-75
2023/06/17 02:07:38;;;;;;;4.67;4.27;;;;;;;;;;5092344;28;20592;-75
2023/06/17 02:10:05;;;;;;;5.03;4.10;;;;;;;;;;5097322;28;20194;-75
2023/06/17 02:12:33;;;;;;;8.27;4.33;;;;;;;;;;5100017;28;20196;-76
2023/06/17 02:15:01;;;;;;;4.80;4.40;;;;;;;;;;5105565;28;20244;-76
2023/06/17 02:17:28;;;;;;;6.33;4.50;;;;;;;;;;5104406;28;20230;-76
2023/06/17 02:19:55;;;;;;;6.40;4.67;;;;;;;;;;5093322;28;20196;-75
2023/06/17 02:22:22;;;;;;;5.87;3.87;;;;;;;;;;5104743;28;20261;-75
2023/06/17 02:24:49;;;;;;;6.37;4.33;;;;;;;;;;5098407;28;20204;-75
2023/06/17 02:27:16;;;;;;;6.00;4.27;;;;;;;;;;5112047;28;20206;-76
2023/06/17 02:29:43;;;;;;;9.10;4.67;;;;;;;;;;5098542;28;20641;-75
2023/06/17 02:32:12;;;;;;;7.90;4.63;;;;;;;;;;5099104;28;20650;-76
2023/06/17 02:34:42;;;;;;;10.37;4.53;;;;;;;;;;5111920;28;20235;-75
2023/06/17 02:37:09;;;;;;;5.33;4.93;;;;;;;;;;5098029;28;20231;-76
2023/06/17 02:39:35;;;;;;;8.27;5.13;;;;;;;;;;5111959;28;20199;-76
2023/06/17 02:42:03;;;;;;;4.97;4.57;;;;;;;;;;5097202;28;20203;-76
2023/06/17 02:44:30;;;;;;;6.07;4.70;;;;;;;;;;5091554;28;20669;-75
2023/06/17 02:46:57;;;;;;;5.37;4.10;;;;;;;;;;5105850;28;20208;-76
2023/06/17 02:49:26;;;;;;;8.10;5.03;;;;;;;;;;5103969;28;20228;-76
2023/06/17 02:51:52;;;;;;;6.60;6.10;;;;;;;;;;5092516;28;20227;-75
2023/06/17 02:54:19;;;;;;;4.93;4.53;;;;;;;;;;5103657;28;20218;-75
2023/06/17 02:56:46;;;;;;;6.63;4.20;;;;;;;;;;5104437;28;20637;-75
2023/06/17 02:59:15;;;;;;;4.33;3.93;;;;;;;;;;5099732;28;20195;-74
2023/06/17 03:01:42;;;;;;;4.63;3.90;;;;;;;;;;5097441;28;20212;-75
2023/06/17 03:04:10;;;;;;;6.13;4.43;;;;;;;;;;5102154;28;20701;-75
2023/06/17 03:06:41;;;;;;;4.30;3.90;;;;;;;;;;5103612;28;20270;-75
2023/06/17 03:09:08;;;;;;;7.00;4.63;;;;;;;;;;5100137;28;20295;-75
2023/06/17 03:11:35;;;;;;;5.60;4.13;;;;;;;;;;5110213;28;20195;-75
2023/06/17 03:14:02;;;;;;;3.90;3.50;;;;;;;;;;5099598;28;20204;-75
2023/06/17 03:16:31;;;;;;;4.73;4.20;;;;;;;;;;5093920;28;20223;-75
2023/06/17 03:18:58;;;;;;;4.30;3.80;;;;;;;;;;5099542;28;20212;-75
2023/06/17 03:21:25;;;;;;;4.47;4.07;;;;;;;;;;5109082;28;20354;-75
2023/06/17 03:23:53;;;;;;;6.27;4.17;;;;;;;;;;5111171;28;20214;-75
2023/06/17 03:26:23;;;;;;;3.87;3.57;;;;;;;;;;5106465;28;20212;-75
2023/06/17 03:28:50;;;;;;;7.27;3.63;;;;;;;;;;5090649;28;20634;-75
2023/06/17 03:31:20;;;;;;;4.93;4.30;;;;;;;;;;5096414;28;20200;-75
2023/06/17 03:33:48;;;;;;;6.60;5.53;;;;;;;;;;5097590;28;20203;-75
2023/06/17 03:36:16;;;;;;;5.53;5.13;;;;;;;;;;5097545;28;20199;-75
2023/06/17 03:38:43;;;;;;;7.53;4.87;;;;;;;;;;5097463;28;20305;-76
2023/06/17 03:41:11;;;;;;;5.30;4.83;;;;;;;;;;5103962;28;20203;-76
2023/06/17 03:43:38;;;;;;;6.90;4.00;;;;;;;;;;5091287;28;20204;-76
2023/06/17 03:46:05;;;;;;;4.53;4.13;;;;;;;;;;5110951;28;20200;-76
2023/06/17 03:48:31;;;;;;;4.20;3.90;;;;;;;;;;5110808;28;20200;-76
2023/06/17 03:50:58;;;;;;;4.50;4.10;;;;;;;;;;5103265;28;20228;-76
2023/06/17 03:53:25;;;;;;;6.03;4.50;;;;;;;;;;5104535;28;20210;-76
2023/06/17 03:55:52;;;;;;;4.57;3.83;;;;;;;;;;5106939;28;20200;-76
2023/06/17 03:58:21;;;;;;;4.47;3.97;;;;;;;;;;5109095;28;20222;-76
2023/06/17 04:00:48;;;;;;;4.30;4.00;;;;;;;;;;5115147;28;20199;-76
2023/06/17 04:03:15;;;;;;;4.10;3.80;;;;;;;;;;5101052;28;20649;-76
2023/06/17 04:05:42;;;;;;;6.27;4.20;;;;;;;;;;5106824;28;20680;-76
2023/06/17 04:08:09;;;;;;;5.13;4.30;;;;;;;;;;5096126;28;20204;-77
2023/06/17 04:10:36;;;;;;;4.77;4.10;;;;;;;;;;5115301;28;20652;-76
2023/06/17 04:13:03;;;;;;;5.23;4.10;;;;;;;;;;5101149;28;20200;-79
2023/06/17 04:15:31;;;;;;;6.40;4.73;;;;;;;;;;5105780;28;20207;-78
2023/06/17 04:17:57;;;;;;;4.80;4.13;;;;;;;;;;5107649;28;20231;-78
2023/06/17 04:20:25;;;;;;;6.23;4.80;;;;;;;;;;5094367;28;20211;-79
2023/06/17 04:22:52;;;;;;;4.97;4.27;;;;;;;;;;5107698;28;20714;-79
2023/06/17 04:25:20;;;;;;;5.87;4.10;;;;;;;;;;5104084;28;20218;-79
2023/06/17 04:27:48;;;;;;;4.13;3.73;;;;;;;;;;5113750;28;20200;-79
2023/06/17 04:30:16;;;;;;;3.83;3.53;;;;;;;;;;5104245;28;20277;-79
2023/06/17 04:32:44;;;;;;;4.10;3.70;;;;;;;;;;5107503;28;20304;-79
2023/06/17 04:35:12;;;;;;;3.70;3.40;;;;;;;;;;5105298;28;20200;-79
2023/06/17 04:37:40;;;;;;;5.33;3.70;;;;;;;;;;5100458;28;20223;-79
2023/06/17 04:40:11;;;;;;;4.17;3.23;;;;;;;;;;5103179;28;20201;-79
2023/06/17 04:42:40;;;;;;;4.53;3.07;;;;;;;;;;5107413;28;20204;-79
2023/06/17 04:45:09;;;;;;;4.17;3.70;;;;;;;;;;5107025;28;20690;-78
2023/06/17 04:47:36;;;;;;;4.60;3.87;;;;;;;;;;5100107;28;20678;-79
2023/06/17 04:50:05;;;;;;;3.80;3.50;;;;;;;;;;5099370;28;20231;-78
2023/06/17 04:52:33;;;;;;;5.90;3.60;;;;;;;;;;5100236;28;20230;-78
2023/06/17 04:55:00;;;;;;;6.07;4.00;;;;;;;;;;5099249;28;20221;-78
2023/06/17 04:57:27;;;;;;;6.90;4.47;;;;;;;;;;5112410;28;20259;-78
2023/06/17 04:59:53;;;;;;;4.13;3.83;;;;;;;;;;5099077;28;20263;-78
2023/06/17 05:02:20;;;;;;;5.33;4.80;;;;;;;;;;5104173;28;20642;-78
2023/06/17 05:04:47;;;;;;;5.50;5.10;;;;;;;;;;5107078;28;20196;-78
2023/06/17 05:07:15;;;;;;;3.83;3.53;;;;;;;;;;5112113;28;20207;-78
2023/06/17 05:09:42;;;;;;;5.67;3.67;;;;;;;;;;5112186;28;20199;-78
2023/06/17 05:12:09;;;;;;;4.03;3.73;;;;;;;;;;5112634;28;20214;-78
2023/06/17 05:14:36;;;;;;;4.30;3.97;;;;;;;;;;5096521;28;20200;-78
2023/06/17 05:17:02;;;;;;;5.07;3.80;;;;;;;;;;5100692;28;20286;-78
2023/06/17 05:19:29;;;;;;;4.47;3.70;;;;;;;;;;5109825;28;20207;-78
2023/06/17 05:21:56;;;;;;;3.53;3.27;;;;;;;;;;5100911;28;20207;-78
2023/06/17 05:24:24;;;;;;;6.77;3.60;;;;;;;;;;5096072;28;20202;-78
2023/06/17 05:26:52;;;;;;;4.07;3.23;;;;;;;;;;5101365;28;20214;-78
2023/06/17 05:29:18;;;;;;;5.67;3.47;;;;;;;;;;5095404;28;20257;-78
2023/06/17 05:31:45;;;;;;;4.97;3.90;;;;;;;;;;5101748;28;20206;-79
2023/06/17 05:34:13;;;;;;;6.87;4.50;;;;;;;;;;5098487;28;20199;-81
2023/06/17 05:36:40;;;;;;;6.23;5.40;;;;;;;;;;5101678;28;20207;-81
2023/06/17 05:39:07;;;;;;;5.97;4.50;;;;;;;;;;5105388;28;20231;-81
2023/06/17 05:41:35;;;;;;;6.90;6.30;;;;;;;;;;5102403;28;20223;-81
2023/06/17 05:44:02;;;;;;;5.87;4.00;;;;;;;;;;5094754;28;20200;-81
2023/06/17 05:46:28;;;;;;;3.60;3.30;;;;;;;;;;5103146;28;20211;-80
2023/06/17 05:48:55;;;;;;;3.60;3.30;;;;;;;;;;5055114;28;1217298;-82
2023/06/17 05:51:22;;;;;;;3.60;3.30;;;;;;;;;;5113205;28;20214;-82
2023/06/17 05:53:50;;;;;;;3.77;3.47;;;;;;;;;;5112893;28;20211;-80
2023/06/17 05:56:17;;;;;;;4.17;3.77;;;;;;;;;;5098043;28;20228;-81
2023/06/17 05:58:46;;;;;;;4.17;3.57;;;;;;;;;;5092182;28;20728;-81
2023/06/17 06:01:13;;;;;;;4.27;3.87;;;;;;;;;;5105980;28;20199;-80
2023/06/17 06:03:40;;;;;;;4.40;4.00;;;;;;;;;;5100361;28;20249;-81
2023/06/17 06:06:07;;;;;;;4.30;3.97;;;;;;;;;;5110453;28;20203;-79
2023/06/17 06:08:34;;;;;;;4.73;4.20;;;;;;;;;;5091833;28;20216;-80
2023/06/17 06:11:01;;;;;;;4.07;3.67;;;;;;;;;;5092139;28;20573;-80
2023/06/17 06:13:28;;;;;;;3.83;3.53;;;;;;;;;;5091452;28;20572;-80
2023/06/17 06:15:57;;;;;;;3.93;3.50;;;;;;;;;;5094917;28;20200;-81
2023/06/17 06:18:24;;;;;;;3.70;3.43;;;;;;;;;;5097441;28;20718;-81
2023/06/17 06:20:51;;;;;;;4.40;3.33;;;;;;;;;;5096940;28;20215;-80
2023/06/17 06:23:18;;;;;;;3.73;3.43;;;;;;;;;;5079551;28;20203;-81
2023/06/17 06:25:45;;;;;;;4.27;3.87;;;;;;;;;;5110756;28;20211;-80
2023/06/17 06:28:12;;;;;;;5.27;4.87;;;;;;;;;;5085397;28;20197;-80
2023/06/17 06:30:40;;;;;;;4.23;3.90;;;;;;;;;;5091491;28;20196;-80
2023/06/17 06:33:10;;;;;;;3.93;3.63;;;;;;;;;;5102443;28;20208;-80
2023/06/17 06:35:37;;;;;;;4.07;3.30;;;;;;;;;;5087576;28;20289;-80
2023/06/17 06:38:04;;;;;;;5.30;3.30;;;;;;;;;;5084302;28;20228;-79
2023/06/17 06:40:32;;;;;;;4.00;3.60;;;;;;;;;;5105938;28;20210;-80
2023/06/17 06:42:58;;;;;;;4.33;3.50;;;;;;;;;;5101012;28;20212;-79
2023/06/17 06:45:26;;;;;;;4.03;3.63;;;;;;;;;;5092707;28;20200;-79
2023/06/17 06:47:52;;;;;;;3.57;3.27;;;;;;;;;;5100294;28;20568;-80
2023/06/17 06:50:21;;;;;;;4.47;3.43;;;;;;;;;;5104043;28;20660;-79
2023/06/17 06:52:50;;;;;;;3.93;3.33;;;;;;;;;;5090522;28;20209;-79
2023/06/17 06:55:17;;;;;;;3.73;3.30;;;;;;;;;;5103500;28;20692;-80
2023/06/17 06:57:44;;;;;;;4.03;3.60;;;;;;;;;;5098729;28;20685;-78
2023/06/17 07:00:12;;;;;;;3.93;3.63;;;;;;;;;;5099706;28;20204;-79
2023/06/17 07:02:39;;;;;;;4.07;3.70;;;;;;;;;;5103420;28;20196;-80
2023/06/17 07:05:07;;;;;;;4.03;3.77;;;;;;;;;;5090029;28;20200;-80
2023/06/17 07:07:35;;;;;;;4.23;3.90;;;;;;;;;;5103006;28;20204;-79
2023/06/17 07:10:02;;;;;;;5.87;4.20;;;;;;;;;;5101346;28;20199;-80
2023/06/17 07:12:29;;;;;;;6.30;3.77;;;;;;;;;;5096065;28;20207;-79
2023/06/17 07:14:56;;;;;;;4.63;3.57;;;;;;;;;;5098056;28;20208;-80
2023/06/17 07:17:23;;;;;;;3.90;3.50;;;;;;;;;;5101350;28;20203;-79
2023/06/17 07:19:50;;;;;;;3.33;3.03;;;;;;;;;;5096083;28;20705;-79
2023/06/17 07:22:16;;;;;;;5.37;3.90;;;;;;;;;;5097912;28;20196;-80
2023/06/17 07:24:47;;;;;;;3.80;3.10;;;;;;;;;;5108250;28;20207;-80
2023/06/17 07:27:14;;;;;;;3.83;3.20;;;;;;;;;;5108983;28;20214;-80
2023/06/17 07:29:41;;;;;;;6.07;3.33;;;;;;;;;;5095874;28;20662;-79
2023/06/17 07:32:08;;;;;;;4.90;3.53;;;;;;;;;;5110061;28;20201;-80
2023/06/17 07:34:35;;;;;;;3.70;3.00;;;;;;;;;;5103917;28;20200;-80
2023/06/17 07:37:02;;;;;;;3.93;3.60;;;;;;;;;;5102660;28;20200;-79
2023/06/17 07:39:33;;;;;;;5.17;3.50;;;;;;;;;;5102902;28;20220;-80
2023/06/17 07:42:02;;;;;;;5.00;3.10;;;;;;;;;;5102953;28;20226;-79
2023/06/17 07:44:32;;;;;;;3.37;3.17;;;;;;;;;;5089293;28;20203;-79
2023/06/17 07:46:59;;;;;;;5.27;3.43;;;;;;;;;;5103573;28;20238;-79
2023/06/17 07:49:25;;;;;;;3.20;3.00;;;;;;;;;;5101835;28;20228;-79
2023/06/17 07:51:52;;;;;;;3.73;3.43;;;;;;;;;;5089888;28;20254;-79
2023/06/17 07:54:19;;;;;;;3.83;3.53;;;;;;;;;;5101507;28;20282;-80
2023/06/17 07:56:46;;;;;;;3.67;3.37;;;;;;;;;;5103372;28;20212;-80
2023/06/17 07:59:14;;;;;;;3.87;3.57;;;;;;;;;;5088953;28;20216;-80
2023/06/17 08:01:41;;;;;;;3.70;3.40;;;;;;;;;;5102467;28;20591;-80
2023/06/17 08:04:07;;;;;;;4.00;3.53;;;;;;;;;;5098044;28;20204;-80
2023/06/17 08:06:35;;;;;;;4.67;3.60;;;;;;;;;;5106790;28;20215;-80
2023/06/17 08:09:02;;;;;;;5.20;3.70;;;;;;;;;;5098507;28;20207;-80
2023/06/17 08:11:29;;;;;;;3.50;3.30;;;;;;;;;;5095156;28;20204;-80
2023/06/17 08:13:56;;;;;;;7.03;3.30;;;;;;;;;;5109204;28;20200;-80
2023/06/17 08:16:24;;;;;;;4.97;4.57;;;;;;;;;;5095815;28;20203;-83
2023/06/17 08:18:51;;;;;;;7.03;4.03;;;;;;;;;;5098803;28;20228;-81
2023/06/17 08:21:18;;;;;;;8.13;4.73;;;;;;;;;;5105673;28;20200;-82
2023/06/17 08:23:45;;;;;;;5.80;5.20;;;;;;;;;;5109552;28;20221;-81
2023/06/17 08:26:12;;;;;;;4.20;3.80;;;;;;;;;;5095875;28;20319;-82
2023/06/17 08:28:39;;;;;;;6.90;5.27;;;;;;;;;;5098987;28;20325;-83
2023/06/17 08:31:08;;;;;;;11.00;5.07;;;;;;;;;;5092486;28;20678;-83
2023/06/17 08:33:36;;;;;;;5.93;5.10;;;;;;;;;;5097942;28;20204;-83
2023/06/17 08:36:03;;;;;;;4.53;4.13;;;;;;;;;;5107423;28;20198;-82
2023/06/17 08:38:30;;;;;;;5.63;5.03;;;;;;;;;;5097768;28;20220;-82
2023/06/17 08:40:56;;;;;;;5.87;4.60;;;;;;;;;;5103882;28;20687;-83
2023/06/17 08:43:24;;;;;;;5.13;4.63;;;;;;;;;;5092119;28;20647;-82
2023/06/17 08:45:54;;;;;;;7.77;4.67;;;;;;;;;;5097831;28;20199;-83
2023/06/17 08:48:21;;;;;;;6.33;5.33;;;;;;;;;;5100163;28;20208;-82
2023/06/17 08:50:50;;;;;;;5.67;4.57;;;;;;;;;;5106722;28;20232;-83
2023/06/17 08:53:18;;;;;;;7.03;4.83;;;;;;;;;;5105514;28;20574;-83
2023/06/17 08:55:45;;;;;;;5.63;4.77;;;;;;;;;;5106893;28;20197;-82
2023/06/17 08:58:11;;;;;;;3.63;3.33;;;;;;;;;;5092315;28;20703;-83
2023/06/17 09:00:38;;;;;;;4.57;3.33;;;;;;;;;;5113167;28;20208;-82
2023/06/17 09:03:06;;;;;;;4.90;3.77;;;;;;;;;;5099100;28;20200;-82
2023/06/17 09:05:34;;;;;;;4.27;3.80;;;;;;;;;;5105313;28;20204;-82
2023/06/17 09:08:03;;;;;;;3.10;2.83;;;;;;;;;;5092574;28;20288;-82
2023/06/17 09:10:29;;;;;;;3.77;3.47;;;;;;;;;;5100020;28;20677;-82
2023/06/17 09:12:59;;;;;;;3.50;3.20;;;;;;;;;;5098463;28;20254;-82
2023/06/17 09:15:29;;;;;;;6.70;3.80;;;;;;;;;;5103935;28;20211;-83
2023/06/17 09:17:58;;;;;;;3.23;3.03;;;;;;;;;;5108258;28;20195;-83
2023/06/17 09:20:27;;;;;;;3.47;3.17;;;;;;;;;;5112804;28;20258;-82
2023/06/17 09:22:53;;;;;;;3.73;3.43;;;;;;;;;;5097922;28;20203;-83
2023/06/17 09:25:22;;;;;;;6.63;4.10;;;;;;;;;;5101951;28;20204;-82
2023/06/17 09:27:50;;;;;;;4.53;4.03;;;;;;;;;;5095984;28;20196;-82
2023/06/17 09:30:20;;;;;;;4.77;3.53;;;;;;;;;;5101268;28;20667;-82
2023/06/17 09:32:49;;;;;;;4.87;4.03;;;;;;;;;;5105378;28;20250;-82
2023/06/17 09:35:16;;;;;;;4.77;4.23;;;;;;;;;;5091927;28;20583;-82
2023/06/17 09:37:44;;;;;;;4.63;3.80;;;;;;;;;;5096869;28;20192;-82
2023/06/17 09:40:12;;;;;;;4.30;3.90;;;;;;;;;;5099865;28;20235;-83
2023/06/17 09:42:44;;;;;;;4.20;3.60;;;;;;;;;;5111650;28;20199;-83
2023/06/17 09:45:12;;;;;;;4.87;3.13;;;;;;;;;;5098151;28;20242;-82
2023/06/17 09:47:39;;;;;;;3.40;3.10;;;;;;;;;;5091229;28;20697;-82
2023/06/17 09:50:09;;;;;;;3.60;3.30;;;;;;;;;;5103996;28;20234;-81
2023/06/17 09:52:38;;;;;;;5.13;2.83;;;;;;;;;;5089389;28;20298;-82
2023/06/17 09:55:06;;;;;;;4.17;3.37;;;;;;;;;;5106284;28;20623;-83
2023/06/17 09:57:34;;;;;;;8.27;3.70;;;;;;;;;;5101292;28;20232;-85
2023/06/17 10:00:09;;;;;;;8.43;3.87;;;;;;;;;;5089296;28;21599;-85
2023/06/17 10:02:37;;;;;;;3.80;3.50;;;;;;;;;;5110158;28;20709;-85
2023/06/17 10:05:05;;;;;;;4.07;3.67;;;;;;;;;;5089356;28;20196;-85
2023/06/17 10:07:32;;;;;;;4.30;4.00;;;;;;;;;;5073210;28;20379;-85
2023/06/17 10:09:59;;;;;;;3.93;3.60;;;;;;;;;;5104798;28;20197;-84
2023/06/17 10:12:27;;;;;;;3.60;3.30;;;;;;;;;;5091323;28;20208;-83
2023/06/17 10:14:54;;;;;;;4.27;3.90;;;;;;;;;;5090383;28;20200;-84
2023/06/17 10:17:23;;;;;;;5.67;3.80;;;;;;;;;;5090773;28;20204;-83
2023/06/17 10:19:54;;;;;;;5.97;3.77;;;;;;;;;;5109383;28;20219;-83
2023/06/17 10:22:22;;;;;;;4.60;4.20;;;;;;;;;;5098927;28;20287;-83
2023/06/17 10:24:49;;;;;;;4.20;3.80;;;;;;;;;;5104875;28;20196;-83
2023/06/17 10:27:16;;;;;;;4.13;3.73;;;;;;;;;;5090602;28;20200;-83
2023/06/17 10:29:44;;;;;;;4.73;4.40;;;;;;;;;;5092769;28;20191;-84
2023/06/17 10:32:19;;;;;;;7.60;4.07;;;;;;;;;;5097623;28;20282;-83
2023/06/17 10:35:12;;;;;;;4.57;4.17;;;;;;;;;;5098982;28;20564;-83
2023/06/17 10:37:41;;;;;;;4.13;3.73;;;;;;;;;;5092290;28;20203;-83
2023/06/17 10:40:24;;;;;;;5.23;3.60;;;;;;;;;;5091059;28;20254;-83
2023/06/17 10:42:58;;;;;;;4.13;3.77;;;;;;;;;;5089923;28;20232;-84
2023/06/17 10:45:25;;;;;;;7.43;3.90;;;;;;;;;;5106735;28;20207;-84
2023/06/17 10:47:52;;;;;;;3.87;3.47;;;;;;;;;;5110963;28;20254;-84
2023/06/17 10:50:23;;;;;;;4.63;4.23;;;;;;;;;;5096637;28;20216;-83
2023/06/17 10:52:56;;;;;;;4.63;4.23;;;;;;;;;;5110966;28;20204;-83
2023/06/17 10:55:23;;;;;;;4.20;3.80;;;;;;;;;;5105765;28;20336;-83
2023/06/17 10:57:51;;;;;;;4.47;4.07;;;;;;;;;;5101833;28;20211;-83
2023/06/17 11:00:18;;;;;;;4.97;4.03;;;;;;;;;;5105299;28;20343;-83
2023/06/17 11:02:45;;;;;;;5.00;3.80;;;;;;;;;;5102238;28;20705;-84
2023/06/17 11:05:12;;;;;;;6.83;4.13;;;;;;;;;;5110023;28;20200;-83
2023/06/17 11:07:40;;;;;;;4.63;4.23;;;;;;;;;;5097219;28;20204;-86
2023/06/17 11:10:10;;;;;;;4.70;4.40;;;;;;;;;;5090325;28;20196;-83
2023/06/17 11:12:39;;;;;;;4.80;4.40;;;;;;;;;;5103790;28;20203;-83
2023/06/17 11:15:08;;;;;;;4.43;4.03;;;;;;;;;;5090182;28;20203;-84
2023/06/17 11:17:35;;;;;;;4.47;4.07;;;;;;;;;;5104154;28;20207;-83
2023/06/17 11:20:05;;;;;;;4.30;4.00;;;;;;;;;;5091093;28;20223;-83
2023/06/17 11:22:37;;;;;;;4.83;4.00;;;;;;;;;;5104861;28;20215;-83
2023/06/17 11:25:07;;;;;;;4.70;4.30;;;;;;;;;;5103481;28;20648;-83
2023/06/17 11:27:35;;;;;;;6.20;4.30;;;;;;;;;;5092140;28;20200;-82
2023/06/17 11:30:03;;;;;;;6.80;4.37;;;;;;;;;;5102631;28;20257;-83
2023/06/17 11:32:30;;;;;;;5.13;4.33;;;;;;;;;;5106223;28;20207;-83
2023/06/17 11:34:58;;;;;;;4.17;3.77;;;;;;;;;;5111412;28;20208;-83
2023/06/17 11:37:25;;;;;;;4.77;4.03;;;;;;;;;;5110787;28;20211;-82
2023/06/17 11:39:57;;;;;;;4.83;3.87;;;;;;;;;;5111060;28;20226;-84
2023/06/17 11:42:25;;;;;;;4.80;4.40;;;;;;;;;;5110838;28;20203;-84
2023/06/17 11:44:52;;;;;;;6.07;4.13;;;;;;;;;;5100217;28;20663;-83
2023/06/17 11:47:19;;;;;;;7.93;4.53;;;;;;;;;;5104132;28;20202;-84
2023/06/17 11:49:46;;;;;;;8.50;7.73;;;;;;;;;;5102050;28;20732;-84
2023/06/17 11:52:14;;;;;;;7.10;5.07;;;;;;;;;;5110688;28;20206;-83
2023/06/17 11:54:49;;;;;;;4.63;3.97;;;;;;;;;;5111645;28;20203;-82
2023/06/17 11:57:19;;;;;;;4.87;3.93;;;;;;;;;;5104736;28;20712;-81
2023/06/17 11:59:47;;;;;;;4.30;3.90;;;;;;;;;;5104208;28;20662;-81
2023/06/17 12:02:14;;;;;;;4.33;3.53;;;;;;;;;;5097198;28;20203;-81
2023/06/17 12:04:43;;;;;;;5.73;3.00;;;;;;;;;;5110879;28;20214;-81
2023/06/17 12:07:10;;;;;;;7.63;6.50;;;;;;;;;;5090624;28;20196;-81
2023/06/17 12:09:37;;;;;;;5.47;4.87;;;;;;;;;;5104318;28;20217;-81
2023/06/17 12:12:10;;;;;;;4.60;4.20;;;;;;;;;;5098180;28;20286;-81
2023/06/17 12:14:38;;;;;;;3.10;2.50;;;;;;;;;;5109271;28;20203;-81
2023/06/17 12:17:09;;;;;;;8.93;8.03;;;;;;;;;;5102735;28;20693;-81
2023/06/17 12:19:37;;;;;;;3.67;3.10;;;;;;;;;;5100940;28;20219;-81
2023/06/17 12:22:12;;;;;;;2.80;2.60;;;;;;;;;;5114642;28;20208;-81
2023/06/17 12:24:39;;;;;;;2.40;2.20;;;;;;;;;;5100846;28;20256;-80
2023/06/17 12:27:09;;;;;;;5.57;3.03;;;;;;;;;;5114542;28;20207;-80
2023/06/17 12:29:36;;;;;;;2.60;2.40;;;;;;;;;;5114441;28;20617;-81
2023/06/17 12:32:04;;;;;;;3.03;2.57;;;;;;;;;;5102534;28;20208;-81
2023/06/17 12:34:33;;;;;;;3.50;2.87;;;;;;;;;;5099498;28;20210;-79
2023/06/17 12:37:01;;;;;;;4.17;2.57;;;;;;;;;;5101387;28;20201;-79
2023/06/17 12:39:31;;;;;;;2.83;2.63;;;;;;;;;;5113640;28;20208;-81
2023/06/17 12:41:58;;;;;;;2.60;2.40;;;;;;;;;;5100717;28;20596;-80
2023/06/17 12:44:25;;;;;;;4.13;3.77;;;;;;;;;;5094187;28;20200;-80
2023/06/17 12:46:54;;;;;;;3.00;2.80;;;;;;;;;;5093654;28;20204;-80
2023/06/17 12:49:22;;;;;;;2.80;2.60;;;;;;;;;;5094402;28;20220;-80
2023/06/17 12:51:51;;;;;;;4.87;2.47;;;;;;;;;;5093890;28;20291;-80
2023/06/17 12:54:19;;;;;;;3.47;3.17;;;;;;;;;;5102475;28;20257;-80
2023/06/17 12:56:46;;;;;;;3.13;2.70;;;;;;;;;;5100162;28;20667;-80
2023/06/17 12:59:12;;;;;;;3.00;2.80;;;;;;;;;;5105376;28;20197;-80
2023/06/17 13:01:39;;;;;;;3.13;2.83;;;;;;;;;;5096076;28;20224;-80
2023/06/17 13:04:09;;;;;;;3.40;3.20;;;;;;;;;;5104257;28;20196;-80
2023/06/17 13:06:36;;;;;;;3.87;2.73;;;;;;;;;;5096603;28;20195;-80
2023/06/17 13:09:04;;;;;;;3.20;3.00;;;;;;;;;;5104072;28;20663;-80
2023/06/17 13:11:31;;;;;;;3.97;3.43;;;;;;;;;;5106961;28;20197;-79
2023/06/17 13:13:58;;;;;;;5.10;3.83;;;;;;;;;;5102172;28;20200;-80
2023/06/17 13:16:25;;;;;;;4.10;3.80;;;;;;;;;;5094794;28;20283;-80
2023/06/17 13:18:53;;;;;;;5.87;3.63;;;;;;;;;;5104051;28;20204;-80
2023/06/17 13:21:20;;;;;;;3.67;3.10;;;;;;;;;;5099482;28;20219;-80
2023/06/17 13:23:46;;;;;;;3.57;3.03;;;;;;;;;;5113533;28;20711;-80
2023/06/17 13:26:15;;;;;;;3.33;3.03;;;;;;;;;;5108869;28;20196;-79
2023/06/17 13:28:41;;;;;;;3.10;2.80;;;;;;;;;;5093250;28;20227;-80
2023/06/17 13:31:08;;;;;;;2.60;2.40;;;;;;;;;;5098054;28;20192;-80
2023/06/17 13:33:36;;;;;;;4.03;3.70;;;;;;;;;;5101267;28;20207;-79
2023/06/17 13:36:03;;;;;;;3.50;3.00;;;;;;;;;;5106562;28;20254;-80
2023/06/17 13:38:30;;;;;;;2.70;2.50;;;;;;;;;;5092844;28;20207;-80
2023/06/17 13:40:57;;;;;;;3.00;2.80;;;;;;;;;;5106815;28;20248;-80
2023/06/17 13:43:25;;;;;;;3.23;2.90;;;;;;;;;;5105327;28;20204;-79
2023/06/17 13:45:52;;;;;;;3.27;2.97;;;;;;;;;;5099780;28;20207;-79
2023/06/17 13:48:19;;;;;;;4.20;3.73;;;;;;;;;;5113154;28;20205;-79
2023/06/17 13:50:46;;;;;;;3.60;3.30;;;;;;;;;;5102228;28;20626;-80
2023/06/17 13:53:13;;;;;;;3.70;3.50;;;;;;;;;;5092292;28;20295;-79
2023/06/17 13:55:40;;;;;;;3.57;3.00;;;;;;;;;;5113054;28;20286;-80
2023/06/17 13:58:07;;;;;;;4.43;4.03;;;;;;;;;;5098758;28;20288;-80
2023/06/17 14:00:36;;;;;;;2.90;2.70;;;;;;;;;;5113082;28;20227;-79
2023/06/17 14:03:03;;;;;;;3.87;3.20;;;;;;;;;;5112083;28;20206;-79
2023/06/17 14:05:30;;;;;;;3.10;2.83;;;;;;;;;;5100264;28;20214;-79
2023/06/17 14:07:57;;;;;;;3.63;2.90;;;;;;;;;;5099174;28;20196;-79
2023/06/17 14:10:24;;;;;;;3.63;2.90;;;;;;;;;;5112923;28;20212;-79
2023/06/17 14:12:51;;;;;;;4.17;2.50;;;;;;;;;;5098662;28;20694;-79
2023/06/17 14:15:18;;;;;;;3.20;2.90;;;;;;;;;;5104528;28;20205;-79
2023/06/17 14:17:46;;;;;;;2.70;2.47;;;;;;;;;;5106613;28;20682;-79
2023/06/17 14:20:16;;;;;;;4.77;2.53;;;;;;;;;;5112827;28;20227;-79
2023/06/17 14:22:43;;;;;;;5.10;2.90;;;;;;;;;;5096418;28;20205;-79
2023/06/17 14:25:11;;;;;;;3.37;2.20;;;;;;;;;;5101149;28;20196;-79
2023/06/17 14:27:39;;;;;;;3.00;2.50;;;;;;;;;;5098520;28;20269;-79
2023/06/17 14:30:09;;;;;;;2.40;2.20;;;;;;;;;;5103447;28;20557;-79
2023/06/17 14:32:36;;;;;;;4.33;2.60;;;;;;;;;;5094698;28;20673;-79
2023/06/17 14:35:06;;;;;;;2.33;2.23;;;;;;;;;;5101737;28;20214;-79
2023/06/17 14:37:33;;;;;;;1.90;1.80;;;;;;;;;;5105031;28;20659;-79
2023/06/17 14:40:02;;;;;;;2.23;1.93;;;;;;;;;;5102199;28;20212;-79
2023/06/17 14:42:29;;;;;;;4.10;2.27;;;;;;;;;;5098485;28;20196;-79
2023/06/17 14:44:56;;;;;;;2.50;2.30;;;;;;;;;;5101317;28;20214;-80
2023/06/17 14:47:23;;;;;;;2.93;2.10;;;;;;;;;;5109280;28;20207;-79